createdAt,value
2018-04-16T00:00:25.977Z,20.46
2018-04-16T00:01:35.788Z,20.44
2018-04-16T00:02:45.594Z,20.49
2018-04-16T00:03:55.677Z,20.42
2018-04-16T00:05:05.774Z,20.51
2018-04-16T00:06:15.588Z,20.53
2018-04-16T00:07:25.668Z,20.53
2018-04-16T00:08:35.801Z,20.51
2018-04-16T00:09:45.892Z,20.57
2018-04-16T00:10:55.984Z,20.57
2018-04-16T00:12:05.535Z,20.53
2018-04-16T00:13:15.627Z,20.63
2018-04-16T00:14:25.703Z,20.54
2018-04-16T00:15:35.809Z,20.61
2018-04-16T00:16:45.905Z,20.63
2018-04-16T00:17:55.973Z,20.64
2018-04-16T00:19:05.797Z,20.66
2018-04-16T00:20:15.890Z,20.68
2018-04-16T00:21:25.709Z,20.71
2018-04-16T00:22:35.797Z,20.61
2018-04-16T00:23:45.893Z,20.67
2018-04-16T00:24:55.715Z,20.71
2018-04-16T00:26:05.554Z,20.71
2018-04-16T00:27:15.362Z,20.68
2018-04-16T00:28:25.189Z,20.61
2018-04-16T00:29:35.286Z,20.48
2018-04-16T00:30:45.374Z,20.53
2018-04-16T00:31:55.461Z,20.51
2018-04-16T00:33:06.165Z,20.54
2018-04-16T00:34:15.972Z,20.53
2018-04-16T00:35:26.066Z,20.53
2018-04-16T00:36:36.153Z,20.44
2018-04-16T00:37:46.251Z,20.53
2018-04-16T00:38:56.343Z,20.46
2018-04-16T00:40:06.634Z,20.41
2018-04-16T00:41:16.718Z,20.54
2018-04-16T00:42:26.810Z,20.58
2018-04-16T00:43:36.883Z,20.49
2018-04-16T00:44:46.969Z,20.63
2018-04-16T00:45:57.064Z,20.56
2018-04-16T00:47:06.873Z,20.56
2018-04-16T00:48:16.953Z,20.48
2018-04-16T00:49:26.780Z,20.48
2018-04-16T00:50:36.857Z,20.42
2018-04-16T00:51:46.962Z,20.41
2018-04-16T00:52:56.788Z,20.46
2018-04-16T00:54:06.625Z,20.38
2018-04-16T00:55:16.732Z,20.29
2018-04-16T00:56:26.828Z,20.37
2018-04-16T00:57:36.649Z,20.35
2018-04-16T00:58:46.734Z,20.37
2018-04-16T00:59:56.556Z,20.37
2018-04-16T01:01:06.369Z,20.34
2018-04-16T01:02:16.456Z,20.35
2018-04-16T01:03:26.538Z,20.44
2018-04-16T01:04:36.353Z,20.38
2018-04-16T01:05:46.427Z,20.38
2018-04-16T01:06:56.279Z,20.44
2018-04-16T01:08:06.095Z,20.42
2018-04-16T01:09:16.193Z,20.3
2018-04-16T01:10:26.261Z,20.34
2018-04-16T01:11:36.337Z,20.41
2018-04-16T01:12:46.205Z,20.44
2018-04-16T01:13:56.280Z,20.46
2018-04-16T01:15:06.369Z,20.42
2018-04-16T01:16:16.195Z,20.38
2018-04-16T01:17:26.008Z,20.35
2018-04-16T01:18:36.112Z,20.35
2018-04-16T01:19:45.938Z,20.41
2018-04-16T01:20:56.033Z,20.35
2018-04-16T01:22:05.850Z,20.23
2018-04-16T01:23:15.946Z,20.27
2018-04-16T01:24:25.512Z,20.26
2018-04-16T01:25:35.334Z,20.32
2018-04-16T01:26:45.407Z,20.27
2018-04-16T01:27:55.477Z,20.29
2018-04-16T01:29:05.537Z,20.29
2018-04-16T01:30:15.409Z,20.27
2018-04-16T01:31:25.498Z,20.32
2018-04-16T01:32:35.615Z,20.26
2018-04-16T01:33:45.456Z,20.22
2018-04-16T01:34:55.527Z,20.2
2018-04-16T01:36:05.099Z,20.34
2018-04-16T01:37:15.187Z,20.32
2018-04-16T01:38:25.283Z,20.29
2018-04-16T01:39:35.107Z,20.25
2018-04-16T01:40:44.918Z,20.27
2018-04-16T01:41:54.734Z,20.22
2018-04-16T01:43:04.813Z,20.25
2018-04-16T01:44:14.624Z,20.3
2018-04-16T01:45:24.698Z,20.3
2018-04-16T01:46:34.787Z,20.29
2018-04-16T01:47:44.880Z,20.29
2018-04-16T01:48:54.697Z,20.26
2018-04-16T01:50:04.788Z,20.3
2018-04-16T01:51:14.888Z,20.37
2018-04-16T01:52:24.440Z,20.37
2018-04-16T01:53:34.537Z,20.29
2018-04-16T01:54:44.362Z,20.27
2018-04-16T01:55:54.441Z,20.26
2018-04-16T01:57:04.546Z,20.32
2018-04-16T01:58:14.632Z,20.34
2018-04-16T01:59:24.456Z,20.26
2018-04-16T02:00:34.538Z,20.29
2018-04-16T02:01:44.605Z,20.32
2018-04-16T02:02:54.683Z,20.27
2018-04-16T02:04:04.770Z,20.38
2018-04-16T02:05:14.907Z,20.23
2018-04-16T02:06:25.038Z,20.27
2018-04-16T02:07:34.881Z,20.26
2018-04-16T02:08:44.950Z,20.22
2018-04-16T02:09:55.036Z,20.29
2018-04-16T02:11:05.166Z,20.26
2018-04-16T02:12:14.973Z,20.23
2018-04-16T02:13:24.781Z,20.18
2018-04-16T02:14:34.897Z,20.27
2018-04-16T02:15:44.975Z,20.22
2018-04-16T02:16:54.788Z,20.27
2018-04-16T02:18:04.888Z,20.25
2018-04-16T02:19:14.980Z,20.16
2018-04-16T02:20:25.055Z,20.2
2018-04-16T02:21:35.159Z,20.12
2018-04-16T02:22:45.033Z,20.16
2018-04-16T02:23:54.848Z,20.08
2018-04-16T02:25:04.922Z,20.04
2018-04-16T02:26:15.007Z,20.04
2018-04-16T02:27:25.104Z,20.07
2018-04-16T02:28:35.200Z,20.12
2018-04-16T02:29:45.283Z,20.12
2018-04-16T02:30:55.374Z,20.15
2018-04-16T02:32:05.454Z,20.1
2018-04-16T02:33:15.524Z,20.02
2018-04-16T02:34:25.640Z,20.02
2018-04-16T02:35:35.726Z,20.1
2018-04-16T02:36:45.797Z,19.98
2018-04-16T02:37:55.359Z,19.92
2018-04-16T02:39:05.451Z,19.92
2018-04-16T02:40:15.527Z,19.93
2018-04-16T02:41:25.340Z,19.86
2018-04-16T02:42:35.479Z,19.78
2018-04-16T02:43:45.312Z,19.8
2018-04-16T02:44:55.135Z,19.8
2018-04-16T02:46:05.219Z,19.74
2018-04-16T02:47:15.313Z,19.67
2018-04-16T02:48:25.402Z,19.64
2018-04-16T02:49:35.503Z,19.67
2018-04-16T02:50:45.624Z,19.7
2018-04-16T02:51:55.465Z,19.52
2018-04-16T02:53:05.261Z,19.57
2018-04-16T02:54:15.074Z,19.55
2018-04-16T02:55:25.153Z,19.52
2018-04-16T02:56:35.229Z,19.56
2018-04-16T02:57:45.321Z,19.49
2018-04-16T02:58:55.414Z,19.49
2018-04-16T03:00:04.979Z,19.49
2018-04-16T03:01:15.061Z,19.4
2018-04-16T03:33:39.190Z,16.97
2018-04-16T03:34:48.751Z,16.94
2018-04-16T03:35:58.566Z,16.95
2018-04-16T03:37:08.647Z,16.95
2018-04-16T03:38:18.737Z,17
2018-04-16T03:39:28.851Z,17.06
2018-04-16T03:40:38.943Z,17.21
2018-04-16T03:41:49.024Z,17.35
2018-04-16T03:42:59.099Z,17.36
2018-04-16T03:44:08.928Z,17.46
2018-04-16T03:45:19.063Z,17.52
2018-04-16T03:46:28.900Z,17.62
2018-04-16T03:47:38.716Z,17.69
2018-04-16T03:48:48.509Z,17.81
2018-04-16T03:49:58.323Z,17.96
2018-04-16T03:51:08.421Z,17.92
2018-04-16T03:52:18.504Z,18.03
2018-04-16T03:53:28.324Z,18.17
2018-04-16T03:54:38.408Z,18.21
2018-04-16T03:55:48.509Z,18.17
2018-04-16T03:56:58.339Z,18.29
2018-04-16T03:58:08.412Z,18.31
2018-04-16T03:59:18.492Z,18.44
2018-04-16T04:00:28.315Z,18.59
2018-04-16T04:01:38.124Z,18.45
2018-04-16T04:02:48.198Z,18.63
2018-04-16T04:03:58.020Z,18.63
2018-04-16T04:05:08.115Z,18.74
2018-04-16T04:06:17.931Z,18.75
2018-04-16T04:07:28.021Z,18.82
2018-04-16T04:08:38.115Z,18.86
2018-04-16T04:09:48.194Z,18.91
2018-04-16T04:10:58.282Z,18.9
2018-04-16T04:12:08.362Z,18.99
2018-04-16T04:13:18.449Z,18.94
2018-04-16T04:14:28.288Z,18.96
2018-04-16T04:15:38.372Z,19.06
2018-04-16T04:16:48.454Z,18.97
2018-04-16T04:17:58.295Z,19.09
2018-04-16T04:19:08.394Z,19.06
2018-04-16T04:20:18.550Z,19.07
2018-04-16T04:21:28.635Z,19.09
2018-04-16T04:22:38.732Z,19.12
2018-04-16T04:23:48.811Z,19.15
2018-04-16T04:24:58.497Z,19.23
2018-04-16T04:26:08.820Z,19.2
2018-04-16T04:27:18.889Z,19.27
2018-04-16T04:28:28.710Z,19.28
2018-04-16T04:29:38.808Z,19.27
2018-04-16T04:30:48.912Z,19.31
2018-04-16T04:31:58.998Z,19.32
2018-04-16T04:33:09.085Z,19.38
2018-04-16T04:34:19.163Z,19.35
2018-04-16T04:35:29.242Z,19.43
2018-04-16T04:36:39.332Z,19.43
2018-04-16T04:37:49.458Z,19.46
2018-04-16T04:38:59.532Z,19.55
2018-04-16T04:40:09.630Z,19.49
2018-04-16T04:41:19.442Z,19.5
2018-04-16T04:42:29.522Z,19.7
2018-04-16T04:43:39.077Z,19.6
2018-04-16T04:44:49.151Z,19.63
2018-04-16T04:45:59.236Z,19.61
2018-04-16T04:47:09.336Z,19.71
2018-04-16T04:48:19.426Z,19.75
2018-04-16T04:49:29.286Z,19.78
2018-04-16T04:50:39.121Z,19.75
2018-04-16T04:51:48.938Z,19.74
2018-04-16T04:52:58.877Z,19.86
2018-04-16T04:54:09.085Z,19.86
2018-04-16T04:55:19.061Z,19.9
2018-04-16T04:56:29.156Z,19.97
2018-04-16T04:57:39.250Z,19.98
2018-04-16T04:58:49.362Z,19.98
2018-04-16T04:59:59.189Z,19.95
2018-04-16T05:01:08.803Z,20.02
2018-04-16T05:02:18.617Z,20.04
2018-04-16T05:03:28.721Z,20.07
2018-04-16T05:04:38.807Z,20.07
2018-04-16T05:05:48.629Z,20.07
2018-04-16T05:06:58.733Z,20.12
2018-04-16T05:08:08.818Z,20.1
2018-04-16T05:09:18.914Z,20.1
2018-04-16T05:10:28.757Z,20.15
2018-04-16T05:11:38.576Z,20.1
2018-04-16T05:12:48.683Z,20.12
2018-04-16T05:13:58.495Z,20.11
2018-04-16T05:15:08.325Z,20.11
2018-04-16T05:16:18.400Z,20.08
2018-04-16T05:17:28.506Z,20.08
2018-04-16T05:18:38.643Z,20.1
2018-04-16T05:19:48.714Z,20.05
2018-04-16T05:20:58.818Z,20.1
2018-04-16T05:22:08.656Z,20.12
2018-04-16T05:23:18.732Z,20.07
2018-04-16T05:24:28.815Z,20.08
2018-04-16T05:25:38.895Z,20.05
2018-04-16T05:26:49.047Z,20.01
2018-04-16T05:27:58.854Z,20.01
2018-04-16T05:29:08.924Z,20.07
2018-04-16T05:30:18.739Z,19.98
2018-04-16T05:31:28.553Z,20.05
2018-04-16T05:32:38.799Z,19.95
2018-04-16T05:33:48.617Z,19.86
2018-04-16T05:34:58.696Z,19.93
2018-04-16T05:36:08.513Z,19.9
2018-04-16T05:37:18.589Z,19.87
2018-04-16T05:38:28.679Z,19.85
2018-04-16T05:39:38.761Z,19.86
2018-04-16T05:40:48.846Z,19.79
2018-04-16T05:41:58.944Z,19.79
2018-04-16T05:43:09.049Z,19.85
2018-04-16T05:44:18.943Z,19.85
2018-04-16T05:45:29.035Z,19.82
2018-04-16T05:46:39.116Z,20
2018-04-16T05:47:49.221Z,19.93
2018-04-16T05:48:59.280Z,20
2018-04-16T05:50:09.125Z,20.02
2018-04-16T05:51:19.229Z,20.15
2018-04-16T05:52:29.323Z,20.02
2018-04-16T05:53:39.423Z,20.12
2018-04-16T05:54:49.492Z,20.18
2018-04-16T05:55:59.575Z,20.15
2018-04-16T05:57:09.677Z,20.15
2018-04-16T05:58:19.764Z,20.1
2018-04-16T05:59:29.844Z,20.12
2018-04-16T06:00:39.937Z,20.22
2018-04-16T06:01:50.027Z,20.4
2018-04-16T06:03:00.103Z,20.48
2018-04-16T06:04:09.931Z,20.46
2018-04-16T06:05:20.015Z,20.61
2018-04-16T06:06:30.102Z,20.61
2018-04-16T06:07:40.264Z,20.64
2018-04-16T06:08:50.338Z,20.72
2018-04-16T06:10:00.416Z,20.83
2018-04-16T06:11:10.564Z,20.82
2018-04-16T06:12:20.400Z,20.93
2018-04-16T06:13:30.613Z,20.93
2018-04-16T06:14:40.787Z,20.98
2018-04-16T06:15:50.866Z,21.06
2018-04-16T06:17:00.953Z,21.11
2018-04-16T06:18:10.768Z,21.04
2018-04-16T06:19:20.864Z,21.19
2018-04-16T06:20:30.977Z,21.13
2018-04-16T06:21:41.070Z,21.33
2018-04-16T06:22:50.871Z,21.46
2018-04-16T06:24:00.691Z,21.56
2018-04-16T06:25:10.841Z,21.71
2018-04-16T06:26:20.960Z,22.02
2018-04-16T06:27:31.392Z,22.16
2018-04-16T06:28:41.550Z,22.18
2018-04-16T06:29:51.389Z,22.33
2018-04-16T06:31:01.202Z,22.42
2018-04-16T06:32:11.281Z,22.46
2018-04-16T06:33:21.374Z,22.55
2018-04-16T06:34:31.204Z,22.7
2018-04-16T06:35:41.299Z,22.79
2018-04-16T06:36:51.493Z,22.85
2018-04-16T06:38:01.571Z,22.88
2018-04-16T06:39:11.693Z,22.99
2018-04-16T06:40:21.792Z,23
2018-04-16T06:41:31.887Z,23.03
2018-04-16T06:42:42.035Z,23.06
2018-04-16T06:43:52.161Z,23.1
2018-04-16T06:45:02.003Z,23.21
2018-04-16T06:46:11.838Z,23.19
2018-04-16T06:47:21.942Z,23.38
2018-04-16T06:48:31.501Z,23.4
2018-04-16T06:49:41.595Z,23.52
2018-04-16T06:50:51.677Z,23.59
2018-04-16T06:52:01.793Z,23.6
2018-04-16T06:53:11.667Z,23.66
2018-04-16T06:54:21.872Z,23.64
2018-04-16T06:55:31.165Z,23.72
2018-04-16T06:56:41.259Z,23.71
2018-04-16T06:57:51.143Z,23.79
2018-04-16T06:59:01.223Z,23.77
2018-04-16T07:00:11.396Z,23.87
2018-04-16T07:01:21.564Z,23.89
2018-04-16T07:02:31.706Z,23.89
2018-04-16T07:03:41.554Z,23.9
2018-04-16T07:04:51.149Z,23.97
2018-04-16T07:06:30.293Z,24.02
2018-04-16T07:07:40.416Z,24.03
2018-04-16T07:08:50.239Z,23.94
2018-04-16T07:10:00.068Z,23.96
2018-04-16T07:11:24.913Z,24.02
2018-04-16T07:12:34.988Z,23.89
2018-04-16T07:13:44.804Z,23.85
2018-04-16T07:14:54.620Z,23.87
2018-04-16T07:16:04.688Z,23.89
2018-04-16T07:17:14.595Z,23.87
2018-04-16T07:18:24.706Z,23.9
2018-04-16T07:19:34.551Z,23.94
2018-04-16T07:20:44.637Z,24.07
2018-04-16T07:21:54.731Z,24.09
2018-04-16T07:23:04.887Z,24.15
2018-04-16T07:24:15.046Z,24.29
2018-04-16T07:25:25.265Z,24.27
2018-04-16T07:26:35.356Z,24.4
2018-04-16T07:27:45.459Z,24.3
2018-04-16T07:28:55.312Z,24.34
2018-04-16T07:30:05.157Z,24.48
2018-04-16T07:31:15.227Z,24.44
2018-04-16T07:32:25.312Z,24.44
2018-04-16T07:33:35.545Z,24.55
2018-04-16T07:35:00.514Z,24.56
2018-04-16T07:36:10.607Z,24.78
2018-04-16T07:37:20.684Z,24.77
2018-04-16T07:38:30.776Z,24.9
2018-04-16T07:39:40.858Z,25.05
2018-04-16T07:40:50.980Z,25.15
2018-04-16T07:42:00.792Z,25.27
2018-04-16T07:43:10.622Z,25.49
2018-04-16T07:44:20.707Z,25.63
2018-04-16T07:45:30.842Z,25.74
2018-04-16T07:46:40.705Z,25.86
2018-04-16T07:47:50.530Z,26.09
2018-04-16T07:49:00.696Z,26.12
2018-04-16T07:50:10.925Z,26.17
2018-04-16T07:51:20.745Z,26.26
2018-04-16T07:52:59.884Z,26.34
2018-04-16T07:54:09.705Z,26.23
2018-04-16T07:55:19.803Z,26.23
2018-04-16T07:56:29.633Z,26.31
2018-04-16T07:57:39.746Z,26.17
2018-04-16T07:58:49.883Z,26
2018-04-16T07:59:59.435Z,25.94
2018-04-16T08:01:08.985Z,25.91
2018-04-16T08:02:19.080Z,25.76
2018-04-16T08:03:29.229Z,25.63
2018-04-16T08:04:39.357Z,25.49
2018-04-16T08:05:49.654Z,25.34
2018-04-16T08:06:59.764Z,25.29
2018-04-16T08:08:09.877Z,25.15
2018-04-16T08:09:20.032Z,25.11
2018-04-16T08:10:30.156Z,25.17
2018-04-16T08:11:40.258Z,25.07
2018-04-16T08:12:50.343Z,25.01
2018-04-16T08:14:00.460Z,25.14
2018-04-16T08:15:10.470Z,25.08
2018-04-16T08:16:20.311Z,25.17
2018-04-16T08:17:30.590Z,25.24
2018-04-16T08:18:40.711Z,25.15
2018-04-16T08:19:50.795Z,25.05
2018-04-16T08:21:00.625Z,25.01
2018-04-16T08:22:10.736Z,24.87
2018-04-16T08:23:20.431Z,24.82
2018-04-16T08:24:30.787Z,24.69
2018-04-16T08:25:40.935Z,24.55
2018-04-16T08:26:52.022Z,24.33
2018-04-16T08:28:02.130Z,24.22
2018-04-16T08:29:12.201Z,24.07
2018-04-16T08:30:22.304Z,24.03
2018-04-16T08:33:26.451Z,23.79
2018-04-16T08:34:36.434Z,23.77
2018-04-16T08:35:46.296Z,23.82
2018-04-16T08:36:56.402Z,23.84
2018-04-16T08:38:06.503Z,23.84
2018-04-16T08:39:25.992Z,23.9
2018-04-16T08:40:36.378Z,24.03
2018-04-16T08:41:47.162Z,24.03
2018-04-16T08:42:57.628Z,24.08
2018-04-16T08:44:07.972Z,24.22
2018-04-16T08:45:17.808Z,24.15
2018-04-16T08:46:42.600Z,24.29
2018-04-16T08:47:52.702Z,24.27
2018-04-16T08:49:02.531Z,24.3
2018-04-16T08:50:12.359Z,24.34
2018-04-16T08:51:22.466Z,24.36
2018-04-16T08:52:32.688Z,24.34
2018-04-16T08:53:42.888Z,24.36
2018-04-16T08:54:52.987Z,24.48
2018-04-16T08:56:02.846Z,24.56
2018-04-16T08:57:12.680Z,24.67
2018-04-16T08:58:22.552Z,24.78
2018-04-16T08:59:32.681Z,24.87
2018-04-16T09:00:42.633Z,24.96
2018-04-16T09:01:52.739Z,25.11
2018-04-16T09:03:02.871Z,25.19
2018-04-16T09:04:12.978Z,25.33
2018-04-16T09:05:23.080Z,25.41
2018-04-16T09:06:33.217Z,25.47
2018-04-16T09:07:43.322Z,25.54
2018-04-16T09:08:53.354Z,25.66
2018-04-16T09:10:03.463Z,25.59
2018-04-16T09:11:13.572Z,25.7
2018-04-16T09:12:23.674Z,25.67
2018-04-16T09:13:33.547Z,25.78
2018-04-16T09:14:43.647Z,25.84
2018-04-16T09:15:53.749Z,25.94
2018-04-16T09:17:03.867Z,25.93
2018-04-16T09:18:13.696Z,26.04
2018-04-16T09:19:23.835Z,26.01
2018-04-16T09:20:33.663Z,26.16
2018-04-16T09:21:43.815Z,26.31
2018-04-16T09:22:53.933Z,26.42
2018-04-16T09:24:04.047Z,26.53
2018-04-16T09:25:14.154Z,26.6
2018-04-16T09:26:24.287Z,26.67
2018-04-16T09:27:34.504Z,26.78
2018-04-16T09:28:44.711Z,26.91
2018-04-16T09:29:54.555Z,27
2018-04-16T09:31:04.651Z,26.96
2018-04-16T09:32:14.736Z,26.99
2018-04-16T09:33:24.807Z,27.11
2018-04-16T09:34:34.897Z,27.23
2018-04-16T09:35:44.984Z,27.38
2018-04-16T09:36:55.074Z,27.52
2018-04-16T09:38:05.279Z,27.51
2018-04-16T09:39:15.464Z,27.59
2018-04-16T09:40:25.553Z,27.71
2018-04-16T09:41:35.652Z,27.79
2018-04-16T09:42:45.744Z,27.86
2018-04-16T09:43:55.836Z,28.03
2018-04-16T09:45:05.924Z,28.12
2018-04-16T09:46:16.026Z,28.2
2018-04-16T09:47:26.137Z,28.38
2018-04-16T09:48:36.227Z,28.43
2018-04-16T09:49:46.366Z,28.53
2018-04-16T09:50:56.197Z,28.53
2018-04-16T09:52:06.307Z,28.61
2018-04-16T09:53:16.125Z,28.64
2018-04-16T09:54:26.215Z,28.67
2018-04-16T09:55:36.094Z,28.73
2018-04-16T09:56:46.180Z,28.78
2018-04-16T09:57:56.285Z,28.78
2018-04-16T09:59:06.374Z,28.82
2018-04-16T10:00:16.213Z,28.8
2018-04-16T10:01:26.456Z,28.91
2018-04-16T10:02:36.798Z,29.02
2018-04-16T10:03:46.645Z,28.95
2018-04-16T10:04:56.485Z,28.95
2018-04-16T10:06:06.683Z,29.08
2018-04-16T10:07:16.838Z,29.1
2018-04-16T10:08:26.927Z,29.01
2018-04-16T10:09:37.008Z,29.02
2018-04-16T10:10:47.120Z,29.14
2018-04-16T10:11:57.335Z,29.26
2018-04-16T10:13:07.448Z,29.33
2018-04-16T10:14:17.525Z,29.35
2018-04-16T10:15:27.642Z,29.52
2018-04-16T10:16:37.756Z,29.38
2018-04-16T10:17:47.849Z,29.3
2018-04-16T10:18:57.992Z,29.26
2018-04-16T10:20:07.823Z,29.26
2018-04-16T10:21:17.927Z,29.08
2018-04-16T10:22:28.054Z,29.05
2018-04-16T10:23:38.143Z,28.9
2018-04-16T10:24:48.251Z,28.86
2018-04-16T10:25:58.369Z,28.83
2018-04-16T10:27:08.194Z,28.91
2018-04-16T10:28:18.325Z,28.86
2018-04-16T10:29:28.469Z,28.88
2018-04-16T10:30:38.603Z,28.86
2018-04-16T10:31:48.702Z,28.75
2018-04-16T10:32:58.799Z,28.65
2018-04-16T10:34:08.919Z,28.65
2018-04-16T10:35:19.232Z,28.67
2018-04-16T10:36:29.340Z,28.67
2018-04-16T10:37:39.454Z,28.65
2018-04-16T10:38:49.053Z,28.85
2018-04-16T10:39:59.156Z,28.86
2018-04-16T10:41:09.108Z,28.97
2018-04-16T10:42:19.326Z,29.05
2018-04-16T10:43:29.413Z,29.06
2018-04-16T10:44:39.514Z,29.02
2018-04-16T10:45:49.711Z,29.1
2018-04-16T10:46:59.813Z,29.03
2018-04-16T10:48:09.658Z,28.9
2018-04-16T10:49:19.759Z,28.95
2018-04-16T10:50:29.858Z,28.97
2018-04-16T10:51:39.990Z,28.98
2018-04-16T10:52:50.091Z,28.98
2018-04-16T10:53:59.963Z,28.98
2018-04-16T10:55:09.792Z,28.92
2018-04-16T10:56:19.365Z,28.98
2018-04-16T10:57:29.234Z,28.94
2018-04-16T10:58:39.347Z,28.88
2018-04-16T10:59:49.628Z,28.91
2018-04-16T11:01:00.025Z,28.85
2018-04-16T11:02:10.236Z,28.85
2018-04-16T11:03:20.385Z,28.88
2018-04-16T11:04:30.479Z,28.9
2018-04-16T11:05:40.625Z,28.86
2018-04-16T11:06:50.731Z,28.82
2018-04-16T11:08:00.843Z,28.92
2018-04-16T11:09:10.688Z,28.9
2018-04-16T11:10:20.529Z,29.02
2018-04-16T11:11:30.638Z,29.03
2018-04-16T11:12:40.752Z,29.08
2018-04-16T11:13:50.860Z,29.2
2018-04-16T11:15:00.947Z,29.26
2018-04-16T11:16:10.790Z,29.32
2018-04-16T11:17:20.943Z,29.38
2018-04-16T11:18:31.059Z,29.48
2018-04-16T11:19:40.903Z,29.39
2018-04-16T11:20:51.009Z,29.43
2018-04-16T11:22:01.125Z,29.52
2018-04-16T11:23:10.993Z,29.48
2018-04-16T11:24:21.091Z,29.43
2018-04-16T11:25:31.179Z,29.43
2018-04-16T11:26:41.276Z,29.43
2018-04-16T11:27:51.156Z,29.4
2018-04-16T11:29:01.550Z,29.33
2018-04-16T11:30:11.664Z,29.33
2018-04-16T11:31:21.809Z,29.26
2018-04-16T11:32:31.925Z,29.26
2018-04-16T11:33:42.016Z,29.23
2018-04-16T11:34:52.130Z,29.17
2018-04-16T11:36:02.218Z,29.24
2018-04-16T11:37:12.055Z,29.1
2018-04-16T11:38:22.171Z,29.05
2018-04-16T11:39:32.282Z,29.01
2018-04-16T11:40:42.420Z,29.11
2018-04-16T11:41:52.525Z,29.03
2018-04-16T11:43:02.644Z,29.08
2018-04-16T11:44:12.757Z,29.02
2018-04-16T11:45:22.857Z,29.05
2018-04-16T11:46:32.725Z,29.18
2018-04-16T11:47:42.819Z,29.23
2018-04-16T11:48:52.650Z,29.24
2018-04-16T11:50:02.750Z,29.29
2018-04-16T11:51:12.850Z,29.33
2018-04-16T11:52:22.844Z,29.17
2018-04-16T11:53:32.669Z,29.08
2018-04-16T11:54:42.784Z,29.02
2018-04-16T11:55:52.904Z,29.03
2018-04-16T11:57:03.013Z,29.03
2018-04-16T11:58:13.206Z,28.9
2018-04-16T11:59:23.052Z,28.82
2018-04-16T12:00:33.176Z,28.72
2018-04-16T12:01:42.738Z,28.63
2018-04-16T12:02:52.834Z,28.48
2018-04-16T12:04:02.986Z,28.36
2018-04-16T12:05:12.822Z,28.28
2018-04-16T12:06:22.937Z,28.2
2018-04-16T12:07:33.071Z,28.18
2018-04-16T12:08:43.188Z,28.11
2018-04-16T12:09:53.347Z,27.98
2018-04-16T12:11:03.188Z,27.98
2018-04-16T12:12:13.512Z,27.89
2018-04-16T12:13:23.711Z,27.87
2018-04-16T12:14:33.822Z,27.87
2018-04-16T12:15:44.010Z,27.86
2018-04-16T12:16:54.116Z,27.69
2018-04-16T12:18:03.960Z,27.69
2018-04-16T12:19:14.084Z,27.48
2018-04-16T12:20:23.946Z,27.38
2018-04-16T12:21:34.073Z,27.12
2018-04-16T12:22:44.184Z,27.05
2018-04-16T12:23:54.339Z,27.06
2018-04-16T12:25:04.448Z,27.05
2018-04-16T12:26:14.577Z,27.01
2018-04-16T12:27:24.743Z,27.04
2018-04-16T12:28:34.966Z,26.89
2018-04-16T12:29:45.116Z,26.63
2018-04-16T12:30:55.017Z,26.59
2018-04-16T12:32:04.900Z,26.45
2018-04-16T12:33:15.061Z,26.34
2018-04-16T12:34:24.896Z,26.32
2018-04-16T12:35:34.987Z,26.24
2018-04-16T12:36:44.806Z,26.19
2018-04-16T12:37:54.957Z,26.03
2018-04-16T12:39:05.188Z,25.94
2018-04-16T12:40:15.459Z,25.93
2018-04-16T12:41:25.292Z,25.86
2018-04-16T12:42:35.134Z,25.84
2018-04-16T12:43:45.264Z,25.75
2018-04-16T12:44:55.361Z,25.64
2018-04-16T12:46:05.460Z,25.63
2018-04-16T12:47:15.559Z,25.49
2018-04-16T12:48:25.671Z,25.44
2018-04-16T12:49:35.856Z,25.33
2018-04-16T12:50:45.987Z,25.33
2018-04-16T12:51:56.102Z,25.3
2018-04-16T12:53:05.941Z,25.34
2018-04-16T12:54:15.523Z,25.32
2018-04-16T12:55:25.601Z,25.37
2018-04-16T12:56:35.708Z,25.33
2018-04-16T12:57:45.777Z,25.39
2018-04-16T12:58:55.888Z,25.42
2018-04-16T13:00:05.982Z,25.44
2018-04-16T13:01:16.072Z,25.45
2018-04-16T13:02:26.271Z,25.33
2018-04-16T13:03:36.096Z,25.27
2018-04-16T13:04:46.176Z,25.3
2018-04-16T13:05:56.259Z,25.3
2018-04-16T13:07:06.353Z,25.38
2018-04-16T13:08:16.509Z,25.29
2018-04-16T13:09:26.601Z,25.34
2018-04-16T13:10:36.701Z,25.29
2018-04-16T13:11:46.528Z,25.33
2018-04-16T13:12:56.098Z,25.19
2018-04-16T13:14:06.264Z,25.2
2018-04-16T13:15:16.356Z,25.27
2018-04-16T13:16:26.186Z,25.24
2018-04-16T13:17:36.018Z,25.33
2018-04-16T13:18:46.119Z,25.33
2018-04-16T13:19:56.222Z,25.38
2018-04-16T13:21:06.313Z,25.47
2018-04-16T13:22:16.414Z,25.6
2018-04-16T13:23:26.501Z,25.57
2018-04-16T13:24:36.618Z,25.71
2018-04-16T13:25:46.519Z,25.74
2018-04-16T13:26:56.586Z,25.71
2018-04-16T13:28:06.660Z,25.75
2018-04-16T13:29:16.490Z,25.71
2018-04-16T13:30:26.586Z,25.76
2018-04-16T13:31:36.678Z,25.85
2018-04-16T13:32:46.790Z,25.86
2018-04-16T13:33:56.348Z,25.88
2018-04-16T13:35:06.435Z,25.97
2018-04-16T13:36:16.522Z,26.15
2018-04-16T13:37:26.638Z,26.16
2018-04-16T13:38:36.733Z,26.26
2018-04-16T13:39:46.829Z,26.3
2018-04-16T13:40:56.909Z,26.27
2018-04-16T13:42:07.024Z,26.27
2018-04-16T13:43:16.664Z,26.23
2018-04-16T13:44:26.769Z,26.22
2018-04-16T13:45:36.336Z,26.19
2018-04-16T13:46:46.431Z,26.15
2018-04-16T13:47:56.558Z,26.16
2018-04-16T13:49:06.691Z,26.19
2018-04-16T13:50:16.779Z,26.22
2018-04-16T13:51:26.869Z,26.19
2018-04-16T13:52:36.981Z,26.09
2018-04-16T13:53:47.048Z,25.99
2018-04-16T13:54:56.858Z,25.84
2018-04-16T13:56:06.946Z,25.64
2018-04-16T13:57:16.765Z,25.66
2018-04-16T13:58:26.844Z,25.64
2018-04-16T13:59:36.956Z,25.52
2018-04-16T14:00:46.767Z,25.44
2018-04-16T14:01:56.611Z,25.26
2018-04-16T14:03:06.709Z,25.12
2018-04-16T14:04:16.798Z,25.04
2018-04-16T14:05:26.898Z,24.86
2018-04-16T14:06:36.998Z,24.8
2018-04-16T14:07:47.083Z,24.71
2018-04-16T14:08:57.163Z,24.77
2018-04-16T14:10:07.264Z,24.78
2018-04-16T14:11:17.088Z,24.66
2018-04-16T14:12:27.263Z,24.56
2018-04-16T14:13:37.067Z,24.58
2018-04-16T14:14:47.033Z,24.58
2018-04-16T14:15:57.123Z,24.61
2018-04-16T14:17:06.944Z,24.59
2018-04-16T14:18:17.024Z,24.63
2018-04-16T14:19:27.122Z,24.54
2018-04-16T14:20:37.219Z,24.61
2018-04-16T14:21:47.045Z,24.51
2018-04-16T14:22:57.139Z,24.45
2018-04-16T14:24:06.969Z,24.3
2018-04-16T14:25:16.802Z,24.3
2018-04-16T14:26:26.621Z,24.17
2018-04-16T14:27:36.726Z,24.11
2018-04-16T14:28:46.819Z,24.07
2018-04-16T14:29:56.924Z,23.93
2018-04-16T14:31:07.002Z,23.92
2018-04-16T14:32:16.815Z,23.84
2018-04-16T14:33:26.633Z,23.77
2018-04-16T14:34:36.737Z,23.77
2018-04-16T14:35:46.655Z,23.7
2018-04-16T14:36:56.463Z,23.62
2018-04-16T14:38:06.271Z,23.66
2018-04-16T14:39:16.366Z,23.63
2018-04-16T14:40:26.199Z,23.64
2018-04-16T14:41:36.295Z,23.57
2018-04-16T14:42:46.372Z,23.59
2018-04-16T14:43:56.210Z,23.52
2018-04-16T14:45:06.299Z,23.35
2018-04-16T14:46:16.372Z,23.38
2018-04-16T14:47:26.200Z,23.21
2018-04-16T14:48:36.277Z,23.16
2018-04-16T14:49:46.372Z,23.16
2018-04-16T14:50:56.463Z,23.09
2018-04-16T14:52:06.299Z,23
2018-04-16T14:53:16.397Z,22.96
2018-04-16T14:54:26.504Z,22.97
2018-04-16T14:55:36.338Z,23.03
2018-04-16T14:56:46.335Z,23
2018-04-16T14:57:56.502Z,22.91
2018-04-16T14:59:06.693Z,23
2018-04-16T15:00:16.791Z,22.94
2018-04-16T15:01:26.633Z,22.96
2018-04-16T15:02:36.457Z,22.97
2018-04-16T15:03:46.035Z,22.96
2018-04-16T15:04:56.173Z,22.91
2018-04-16T15:06:06.264Z,22.89
2018-04-16T15:07:16.347Z,22.73
2018-04-16T15:08:26.452Z,22.63
2018-04-16T15:09:36.551Z,22.67
2018-04-16T15:10:46.385Z,22.51
2018-04-16T15:11:55.942Z,22.49
2018-04-16T15:13:06.045Z,22.39
2018-04-16T15:14:15.886Z,22.41
2018-04-16T15:15:25.984Z,22.41
2018-04-16T15:16:36.141Z,22.36
2018-04-16T15:17:45.434Z,22.29
2018-04-16T15:18:55.517Z,22.31
2018-04-16T15:20:05.620Z,22.27
2018-04-16T15:21:15.429Z,22.23
2018-04-16T15:22:25.305Z,22.14
2018-04-16T15:23:35.401Z,22.15
2018-04-16T15:24:45.450Z,22.2
2018-04-16T15:25:55.639Z,22.2
2018-04-16T15:27:05.770Z,22.18
2018-04-16T15:28:15.940Z,22.09
2018-04-16T15:29:25.803Z,22.2
2018-04-16T15:30:35.877Z,22.18
2018-04-16T15:31:45.714Z,22.08
2018-04-16T15:32:55.544Z,22.12
2018-04-16T15:34:05.707Z,22
2018-04-16T15:35:15.809Z,21.94
2018-04-16T15:36:25.643Z,21.93
2018-04-16T15:37:35.722Z,21.99
2018-04-16T15:38:45.805Z,21.96
2018-04-16T15:39:55.930Z,21.9